createdAt,value
2023-01-08T00:02:11.708Z,100634.16
2023-01-08T00:04:38.420Z,100625.22
2023-01-08T00:07:05.188Z,100624.88
2023-01-08T00:09:31.874Z,100630.28
2023-01-08T00:11:58.682Z,100618.16
2023-01-08T00:14:25.359Z,100625.16
2023-01-08T00:16:52.207Z,100629.38
2023-01-08T00:19:19.135Z,100626.41
2023-01-08T00:21:45.912Z,100618.69
2023-01-08T00:24:12.587Z,100612.56
2023-01-08T00:26:39.598Z,100601.50
2023-01-08T00:29:06.329Z,100600.81
2023-01-08T00:31:33.000Z,100603.44
2023-01-08T00:33:59.700Z,100591.94
2023-01-08T00:36:29.690Z,100577.03
2023-01-08T00:38:56.375Z,100583.47
2023-01-08T00:41:23.207Z,100582.72
2023-01-08T00:43:49.916Z,100574.16
2023-01-08T00:46:16.627Z,100579.88
2023-01-08T00:48:43.389Z,100580.44
2023-01-08T00:51:10.272Z,100575.00
2023-01-08T00:53:38.321Z,100578.28
2023-01-08T00:56:08.404Z,100578.09
2023-01-08T00:58:35.202Z,100573.63
2023-01-08T01:01:02.287Z,100566.41
2023-01-08T01:03:29.022Z,100556.09
2023-01-08T01:06:03.236Z,100555.13
2023-01-08T01:08:30.181Z,100559.38
2023-01-08T01:10:56.990Z,100563.34
2023-01-08T01:13:23.719Z,100553.06
2023-01-08T01:16:03.183Z,100562.88
2023-01-08T01:18:31.218Z,100559.47
2023-01-08T01:20:57.956Z,100556.22
2023-01-08T01:23:24.639Z,100541.47
2023-01-08T01:25:51.409Z,100551.25
2023-01-08T01:28:18.238Z,100560.50
2023-01-08T01:30:45.033Z,100545.63
2023-01-08T01:33:11.755Z,100550.84
2023-01-08T01:35:38.431Z,100548.78
2023-01-08T01:38:05.117Z,100558.88
2023-01-08T01:40:31.820Z,100556.13
2023-01-08T01:42:58.467Z,100552.16
2023-01-08T01:45:27.963Z,100545.16
2023-01-08T01:48:00.640Z,100538.38
2023-01-08T01:50:40.443Z,100522.28
2023-01-08T01:53:13.464Z,100530.19
2023-01-08T01:55:43.467Z,100539.53
2023-01-08T01:58:20.204Z,100533.06
2023-01-08T02:00:47.174Z,100537.34
2023-01-08T02:03:15.833Z,100530.56
2023-01-08T02:06:14.910Z,100525.97
2023-01-08T02:09:04.677Z,100528.75
2023-01-08T02:11:42.242Z,100518.34
2023-01-08T02:14:32.882Z,100510.16
2023-01-08T02:17:10.107Z,100507.88
2023-01-08T02:19:42.795Z,100490.69
2023-01-08T02:22:25.271Z,100486.66
2023-01-08T02:25:10.091Z,100499.00
2023-01-08T02:27:38.263Z,100496.00
2023-01-08T02:30:05.969Z,100484.44
2023-01-08T02:32:40.956Z,100492.44
2023-01-08T02:35:08.573Z,100496.84
2023-01-08T02:37:36.536Z,100486.59
2023-01-08T02:40:06.822Z,100488.34
2023-01-08T02:42:56.618Z,100481.44
2023-01-08T02:45:38.510Z,100473.56
2023-01-08T02:48:10.129Z,100473.56
2023-01-08T02:50:41.349Z,100473.50
2023-01-08T02:53:16.944Z,100460.13
2023-01-08T02:55:48.605Z,100469.25
2023-01-08T02:58:15.523Z,100460.53
2023-01-08T03:00:43.278Z,100460.91
2023-01-08T03:03:17.426Z,100451.22
2023-01-08T03:05:47.427Z,100449.91
2023-01-08T03:08:14.353Z,100459.06
2023-01-08T03:10:42.517Z,100451.81
2023-01-08T03:13:14.469Z,100451.97
2023-01-08T03:15:47.478Z,100458.16
2023-01-08T03:18:19.451Z,100440.09
2023-01-08T03:20:46.308Z,100449.75
2023-01-08T03:23:14.855Z,100437.28
2023-01-08T03:25:43.832Z,100439.09
2023-01-08T03:28:16.007Z,100435.78
2023-01-08T03:30:43.431Z,100436.13
2023-01-08T03:33:10.932Z,100435.84
2023-01-08T03:35:38.751Z,100428.75
2023-01-08T03:38:11.471Z,100420.41
2023-01-08T03:40:43.523Z,100421.16
2023-01-08T03:43:10.368Z,100424.59
2023-01-08T03:45:39.023Z,100427.28
2023-01-08T03:48:06.304Z,100443.69
2023-01-08T03:50:33.046Z,100441.84
2023-01-08T03:53:00.863Z,100439.34
2023-01-08T03:55:27.773Z,100436.34
2023-01-08T03:57:54.445Z,100430.38
2023-01-08T04:00:21.216Z,100429.78
2023-01-08T04:02:48.558Z,100432.47
2023-01-08T04:05:15.269Z,100434.50
2023-01-08T04:07:42.031Z,100434.03
2023-01-08T04:10:08.821Z,100434.41
2023-01-08T04:12:35.703Z,100419.00
2023-01-08T04:15:02.452Z,100435.00
2023-01-08T04:17:29.229Z,100446.19
2023-01-08T04:19:55.967Z,100436.91
2023-01-08T04:22:22.733Z,100441.16
2023-01-08T04:24:49.438Z,100441.59
2023-01-08T04:27:16.172Z,100432.59
2023-01-08T04:29:42.877Z,100414.13
2023-01-08T04:32:09.607Z,100408.19
2023-01-08T04:34:36.288Z,100406.94
2023-01-08T04:37:03.437Z,100403.28
2023-01-08T04:39:30.097Z,100403.25
2023-01-08T04:41:56.818Z,100401.41
2023-01-08T04:44:23.539Z,100402.59
2023-01-08T04:46:50.268Z,100414.97
2023-01-08T04:49:17.074Z,100419.28
2023-01-08T04:51:43.834Z,100417.53
2023-01-08T04:54:10.528Z,100416.16
2023-01-08T04:56:37.438Z,100410.38
2023-01-08T04:59:04.215Z,100404.75
2023-01-08T05:01:31.016Z,100408.03
2023-01-08T05:03:59.800Z,100392.00
2023-01-08T05:06:28.071Z,100405.41
2023-01-08T05:08:54.909Z,100387.44
2023-01-08T05:11:22.016Z,100385.72
2023-01-08T05:13:49.759Z,100390.69
2023-01-08T05:16:17.014Z,100388.03
2023-01-08T05:18:45.205Z,100387.16
2023-01-08T05:21:11.923Z,100400.25
2023-01-08T05:23:38.611Z,100389.97
2023-01-08T05:26:06.473Z,100391.50
2023-01-08T05:28:33.482Z,100390.38
2023-01-08T05:31:00.683Z,100378.03
2023-01-08T05:33:27.733Z,100373.59
2023-01-08T05:35:54.465Z,100373.50
2023-01-08T05:38:21.178Z,100368.34
2023-01-08T05:40:47.899Z,100368.97
2023-01-08T05:43:14.596Z,100363.59
2023-01-08T05:45:41.500Z,100353.25
2023-01-08T05:48:08.724Z,100357.22
2023-01-08T05:50:36.093Z,100365.13
2023-01-08T05:53:07.733Z,100362.44
2023-01-08T05:55:34.817Z,100360.03
2023-01-08T05:58:02.945Z,100360.84
2023-01-08T06:00:30.133Z,100363.13
2023-01-08T06:02:56.885Z,100359.44
2023-01-08T06:05:23.607Z,100362.00
2023-01-08T06:07:50.312Z,100356.63
2023-01-08T06:10:17.073Z,100364.41
2023-01-08T06:12:43.988Z,100349.69
2023-01-08T06:15:12.103Z,100346.59
2023-01-08T06:17:38.825Z,100348.31
2023-01-08T06:20:06.249Z,100351.22
2023-01-08T06:22:34.005Z,100338.56
2023-01-08T06:25:01.218Z,100342.19
2023-01-08T06:27:27.921Z,100338.41
2023-01-08T06:29:54.664Z,100337.13
2023-01-08T06:32:21.501Z,100345.06
2023-01-08T06:34:48.201Z,100335.88
2023-01-08T06:37:15.243Z,100335.88
2023-01-08T06:39:41.927Z,100339.53
2023-01-08T06:42:08.934Z,100323.59
2023-01-08T06:44:35.744Z,100330.03
2023-01-08T06:47:02.500Z,100335.78
2023-01-08T06:49:29.232Z,100331.78
2023-01-08T06:51:57.405Z,100333.47
2023-01-08T06:54:24.101Z,100345.03
2023-01-08T06:56:54.151Z,100337.72
2023-01-08T06:59:21.507Z,100332.97
2023-01-08T07:01:48.479Z,100340.13
2023-01-08T07:04:15.264Z,100338.94
2023-01-08T07:06:41.967Z,100328.34
2023-01-08T07:09:12.249Z,100334.28
2023-01-08T07:11:39.407Z,100334.56
2023-01-08T07:14:06.123Z,100336.69
2023-01-08T07:16:33.200Z,100343.19
2023-01-08T07:19:01.125Z,100332.25
2023-01-08T07:21:27.841Z,100345.19
2023-01-08T07:23:54.603Z,100348.97
2023-01-08T07:26:21.363Z,100360.56
2023-01-08T07:28:48.092Z,100354.63
2023-01-08T07:31:14.918Z,100369.59
2023-01-08T07:33:41.685Z,100362.38
2023-01-08T07:36:08.683Z,100356.03
2023-01-08T07:38:35.647Z,100354.03
2023-01-08T07:41:02.429Z,100356.78
2023-01-08T07:43:30.226Z,100356.28
2023-01-08T07:45:57.908Z,100350.91
2023-01-08T07:48:24.647Z,100350.84
2023-01-08T07:50:51.375Z,100351.78
2023-01-08T07:53:18.228Z,100345.28
2023-01-08T07:55:45.001Z,100344.41
2023-01-08T07:58:13.073Z,100337.81
2023-01-08T08:00:40.240Z,100340.00
2023-01-08T08:03:09.432Z,100332.03
2023-01-08T08:05:36.158Z,100333.50
2023-01-08T08:08:02.910Z,100331.50
2023-01-08T08:10:29.669Z,100340.53
2023-01-08T08:12:56.443Z,100349.22
2023-01-08T08:15:23.323Z,100335.53
2023-01-08T08:17:50.129Z,100338.66
2023-01-08T08:20:17.019Z,100337.81
2023-01-08T08:22:43.709Z,100331.81
2023-01-08T08:25:10.701Z,100325.69
2023-01-08T08:27:37.439Z,100322.41
2023-01-08T08:30:05.168Z,100321.25
2023-01-08T08:32:31.862Z,100311.44
2023-01-08T08:34:58.587Z,100317.78
2023-01-08T08:37:25.333Z,100310.28
2023-01-08T08:39:52.399Z,100308.66
2023-01-08T08:42:20.191Z,100309.75
2023-01-08T08:44:47.070Z,100317.28
2023-01-08T08:47:13.923Z,100314.63
2023-01-08T08:49:41.762Z,100314.22
2023-01-08T08:52:08.732Z,100311.72
2023-01-08T08:54:35.514Z,100306.56
2023-01-08T08:57:02.368Z,100297.31
2023-01-08T08:59:29.145Z,100294.69
2023-01-08T09:01:56.160Z,100292.56
2023-01-08T09:04:23.032Z,100297.25
2023-01-08T09:06:49.883Z,100281.28
2023-01-08T09:09:16.865Z,100275.19
2023-01-08T09:11:43.657Z,100277.59
2023-01-08T09:14:10.403Z,100280.16
2023-01-08T09:16:37.369Z,100281.28
2023-01-08T09:19:04.256Z,100277.19
2023-01-08T09:21:31.234Z,100273.41
2023-01-08T09:23:58.094Z,100289.66
2023-01-08T09:26:25.052Z,100292.63
2023-01-08T09:28:51.905Z,100304.81
2023-01-08T09:31:18.981Z,100292.47
2023-01-08T09:33:49.684Z,100299.50
2023-01-08T09:36:18.466Z,100301.34
2023-01-08T09:38:45.629Z,100300.03
2023-01-08T09:41:18.531Z,100314.75
2023-01-08T09:43:47.753Z,100317.56
2023-01-08T09:46:17.297Z,100327.22
2023-01-08T09:48:44.966Z,100321.88
2023-01-08T09:51:18.799Z,100325.41
2023-01-08T09:53:46.203Z,100316.47
2023-01-08T09:56:18.065Z,100309.84
2023-01-08T09:58:54.532Z,100313.97
2023-01-08T10:01:23.879Z,100306.94
2023-01-08T10:04:07.421Z,100315.53
2023-01-08T10:06:34.236Z,100310.41
2023-01-08T10:09:00.965Z,100307.44
2023-01-08T10:11:33.428Z,100300.22
2023-01-08T10:14:00.113Z,100285.53
2023-01-08T10:16:31.829Z,100291.00
2023-01-08T10:18:59.034Z,100287.25
2023-01-08T10:21:31.389Z,100285.22
2023-01-08T10:23:58.287Z,100279.44
2023-01-08T10:26:36.579Z,100290.88
2023-01-08T10:29:07.633Z,100285.41
2023-01-08T10:31:35.185Z,100277.28
2023-01-08T10:34:09.803Z,100278.16
2023-01-08T10:36:40.804Z,100262.03
2023-01-08T10:39:07.752Z,100254.94
2023-01-08T10:41:39.733Z,100266.13
2023-01-08T10:44:07.897Z,100266.00
2023-01-08T10:46:45.467Z,100252.53
2023-01-08T10:49:25.314Z,100259.88
2023-01-08T10:51:56.620Z,100255.50
2023-01-08T10:54:38.518Z,100245.41
2023-01-08T10:57:29.198Z,100251.13
2023-01-08T10:59:56.611Z,100245.00
2023-01-08T11:02:38.943Z,100256.13
2023-01-08T11:05:09.346Z,100243.03
2023-01-08T11:07:36.504Z,100236.28
2023-01-08T11:10:05.201Z,100224.41
2023-01-08T11:12:45.437Z,100231.88
2023-01-08T11:15:18.124Z,100237.72
2023-01-08T11:17:45.488Z,100233.97
2023-01-08T11:20:29.677Z,100221.97
2023-01-08T11:23:21.825Z,100215.94
2023-01-08T11:25:52.915Z,100209.34
2023-01-08T11:28:26.572Z,100211.53
2023-01-08T11:31:59.910Z,100203.94
2023-01-08T11:34:53.788Z,100203.84
2023-01-08T11:37:29.089Z,100196.34
2023-01-08T11:39:57.473Z,100208.03
2023-01-08T11:43:03.763Z,100204.19
2023-01-08T11:45:58.583Z,100204.25
2023-01-08T11:48:35.329Z,100204.66
2023-01-08T11:51:34.843Z,100191.03
2023-01-08T11:54:23.749Z,100178.25
2023-01-08T11:57:25.515Z,100171.88
2023-01-08T12:00:14.174Z,100183.72
2023-01-08T12:02:56.329Z,100171.22
2023-01-08T12:05:39.377Z,100176.53
2023-01-08T12:08:08.338Z,100162.94
2023-01-08T12:10:49.755Z,100159.38
2023-01-08T12:13:32.771Z,100162.13
2023-01-08T12:16:28.377Z,100156.88
2023-01-08T12:19:33.041Z,100161.22
2023-01-08T12:22:28.440Z,100153.97
2023-01-08T12:25:16.862Z,100149.69
2023-01-08T12:27:57.263Z,100145.56
2023-01-08T12:30:36.816Z,100138.41
2023-01-08T12:33:26.007Z,100154.47
2023-01-08T12:35:56.261Z,100148.06
2023-01-08T12:38:29.188Z,100148.03
2023-01-08T12:40:59.266Z,100148.72
2023-01-08T12:43:32.965Z,100159.38
2023-01-08T12:46:01.862Z,100146.31
2023-01-08T12:48:31.414Z,100136.91
2023-01-08T12:51:01.466Z,100137.34
2023-01-08T12:53:37.960Z,100130.91
2023-01-08T12:56:16.190Z,100140.00
2023-01-08T12:58:51.325Z,100135.22
2023-01-08T13:01:45.687Z,100134.88
2023-01-08T13:04:12.774Z,100132.41
2023-01-08T13:06:50.388Z,100131.75
2023-01-08T13:09:23.726Z,100132.66
2023-01-08T13:11:56.499Z,100132.66
2023-01-08T13:14:26.775Z,100145.44
2023-01-08T13:17:17.485Z,100132.91
2023-01-08T13:19:51.914Z,100125.47
2023-01-08T13:22:31.114Z,100131.97
2023-01-08T13:25:28.997Z,100128.78
2023-01-08T13:27:55.935Z,100111.03
2023-01-08T13:30:50.186Z,100121.72
2023-01-08T13:33:48.005Z,100114.84
2023-01-08T13:36:16.469Z,100118.06
2023-01-08T13:38:44.570Z,100108.25
2023-01-08T13:41:29.801Z,100109.66
2023-01-08T13:44:06.741Z,100112.94
2023-01-08T13:46:37.242Z,100114.44
2023-01-08T13:49:05.815Z,100107.19
2023-01-08T13:51:43.758Z,100102.44
2023-01-08T13:54:13.565Z,100103.97
2023-01-08T13:56:41.165Z,100097.22
2023-01-08T13:59:20.969Z,100095.56
2023-01-08T14:01:55.126Z,100100.75
2023-01-08T14:04:23.628Z,100100.97
2023-01-08T14:06:50.789Z,100090.44
2023-01-08T14:09:23.476Z,100095.91
2023-01-08T14:11:53.466Z,100089.56
2023-01-08T14:14:22.106Z,100094.91
2023-01-08T14:16:49.594Z,100090.41
2023-01-08T14:19:22.271Z,100083.59
2023-01-08T14:21:54.147Z,100080.66
2023-01-08T14:24:22.812Z,100077.25
2023-01-08T14:26:55.343Z,100079.63
2023-01-08T14:29:23.893Z,100061.31
2023-01-08T14:31:53.542Z,100083.44
2023-01-08T14:34:31.492Z,100078.03
2023-01-08T14:36:58.534Z,100076.16
2023-01-08T14:39:31.487Z,100086.78
2023-01-08T14:42:20.767Z,100091.59
2023-01-08T14:44:54.580Z,100090.50
2023-01-08T14:47:21.717Z,100075.47
2023-01-08T14:49:52.070Z,100065.88
2023-01-08T14:52:20.995Z,100065.25
2023-01-08T14:54:49.875Z,100070.94
2023-01-08T14:57:17.868Z,100074.03
2023-01-08T14:59:52.008Z,100086.75
2023-01-08T15:02:27.266Z,100083.00
2023-01-08T15:05:03.159Z,100079.94
2023-01-08T15:07:30.193Z,100064.94
2023-01-08T15:09:59.219Z,100078.22
2023-01-08T15:12:28.500Z,100081.06
2023-01-08T15:14:55.403Z,100079.34
2023-01-08T15:17:24.164Z,100075.66
2023-01-08T15:19:56.456Z,100074.41
2023-01-08T15:22:25.451Z,100076.59
2023-01-08T15:25:03.989Z,100076.44
2023-01-08T15:27:31.776Z,100071.66
2023-01-08T15:30:03.852Z,100064.72
2023-01-08T15:32:37.400Z,100068.66
2023-01-08T15:35:15.613Z,100073.44
2023-01-08T15:37:42.726Z,100076.22
2023-01-08T15:40:11.320Z,100068.66
2023-01-08T15:42:56.834Z,100077.72
2023-01-08T15:45:28.605Z,100079.69
2023-01-08T15:47:56.141Z,100084.50
2023-01-08T15:50:24.178Z,100079.06
2023-01-08T15:52:50.911Z,100083.06
2023-01-08T15:55:21.892Z,100091.53
2023-01-08T15:57:49.327Z,100086.78
2023-01-08T16:00:17.776Z,100076.22
2023-01-08T16:02:47.270Z,100080.44
2023-01-08T16:05:15.410Z,100072.06
2023-01-08T16:07:42.230Z,100077.41
2023-01-08T16:10:09.549Z,100083.56
2023-01-08T16:12:36.578Z,100083.06
2023-01-08T16:15:03.922Z,100078.03
2023-01-08T16:17:30.954Z,100076.75
2023-01-08T16:19:58.052Z,100079.47
2023-01-08T16:22:25.061Z,100075.06
2023-01-08T16:24:53.030Z,100072.41
2023-01-08T16:27:19.802Z,100062.88
2023-01-08T16:29:46.710Z,100072.88
2023-01-08T16:32:13.631Z,100064.53
2023-01-08T16:34:40.516Z,100050.75
2023-01-08T16:37:08.124Z,100067.91
2023-01-08T16:39:35.100Z,100065.81
2023-01-08T16:42:02.143Z,100062.47
2023-01-08T16:44:29.049Z,100066.69
2023-01-08T16:46:56.118Z,100058.72
2023-01-08T16:49:23.372Z,100044.38
2023-01-08T16:51:50.484Z,100051.44
2023-01-08T16:54:17.443Z,100045.72
2023-01-08T16:56:44.915Z,100043.81
2023-01-08T16:59:22.402Z,100045.09
2023-01-08T17:01:49.991Z,100040.00
2023-01-08T17:04:16.928Z,100041.66
2023-01-08T17:06:44.841Z,100026.44
2023-01-08T17:09:11.974Z,100033.34
2023-01-08T17:11:39.076Z,100026.94
2023-01-08T17:14:06.005Z,100024.88
2023-01-08T17:16:33.029Z,100030.53
2023-01-08T17:19:00.166Z,100030.47
2023-01-08T17:21:26.958Z,100022.22
2023-01-08T17:23:53.837Z,100010.53
2023-01-08T17:26:20.693Z,100009.44
2023-01-08T17:28:47.566Z,100005.38
2023-01-08T17:31:18.545Z,100022.03
2023-01-08T17:33:50.187Z,100011.34
2023-01-08T17:36:22.761Z,100016.03
2023-01-08T17:38:53.617Z,100012.28
2023-01-08T17:41:41.186Z,100010.25
2023-01-08T17:44:09.371Z,99997.72
2023-01-08T17:46:38.080Z,100002.22
2023-01-08T17:49:05.548Z,99992.31
2023-01-08T17:51:33.611Z,99993.34
2023-01-08T17:54:01.141Z,99992.66
2023-01-08T17:56:28.139Z,99991.50
2023-01-08T17:58:55.036Z,99987.66
2023-01-08T18:01:22.244Z,99990.78
2023-01-08T18:03:49.728Z,99989.06
2023-01-08T18:06:16.689Z,99994.22
2023-01-08T18:08:43.535Z,99985.16
2023-01-08T18:11:10.609Z,99983.53
2023-01-08T18:13:37.959Z,99985.81
2023-01-08T18:16:07.517Z,99989.19
2023-01-08T18:18:35.322Z,99997.91
2023-01-08T18:21:02.271Z,99991.38
2023-01-08T18:23:29.327Z,99983.47
2023-01-08T18:25:56.466Z,99983.91
2023-01-08T18:28:23.496Z,99991.66
2023-01-08T18:30:50.339Z,99994.31
2023-01-08T18:33:17.157Z,99988.31
2023-01-08T18:35:44.114Z,99969.84
2023-01-08T18:38:15.807Z,99954.38
2023-01-08T18:40:43.481Z,99959.16
2023-01-08T18:43:10.759Z,99971.06
2023-01-08T18:45:38.944Z,99971.81
2023-01-08T18:48:07.013Z,99967.09
2023-01-08T18:50:34.075Z,99958.22
2023-01-08T18:53:03.894Z,99961.09
2023-01-08T18:55:31.125Z,99964.53
2023-01-08T18:57:58.165Z,99952.00
2023-01-08T19:00:26.897Z,99960.66
2023-01-08T19:02:57.259Z,99944.72
2023-01-08T19:05:24.470Z,99970.25
2023-01-08T19:07:51.338Z,99961.47
2023-01-08T19:10:18.482Z,99960.72
2023-01-08T19:12:45.293Z,99955.03
2023-01-08T19:15:12.337Z,99959.75
2023-01-08T19:17:39.559Z,99959.78
2023-01-08T19:20:06.841Z,99955.19
2023-01-08T19:22:33.781Z,99953.84
2023-01-08T19:25:00.503Z,99946.88
2023-01-08T19:27:27.392Z,99931.84
2023-01-08T19:29:54.204Z,99938.97
2023-01-08T19:32:21.105Z,99933.28
2023-01-08T19:34:48.476Z,99929.81
2023-01-08T19:37:15.348Z,99938.53
2023-01-08T19:39:42.142Z,99949.13
2023-01-08T19:42:29.176Z,99941.38
2023-01-08T19:44:56.674Z,99947.25
2023-01-08T19:47:24.631Z,99953.50
2023-01-08T19:49:51.315Z,99942.88
2023-01-08T19:52:18.385Z,99938.38
2023-01-08T19:54:45.995Z,99940.81
2023-01-08T19:57:13.600Z,99934.28
2023-01-08T19:59:40.631Z,99922.31
2023-01-08T20:02:09.341Z,99915.97
2023-01-08T20:04:39.562Z,99916.78
2023-01-08T20:07:06.441Z,99911.03
2023-01-08T20:09:35.045Z,99904.53
2023-01-08T20:12:02.758Z,99897.34
2023-01-08T20:14:30.085Z,99907.16
2023-01-08T20:16:57.181Z,99911.22
2023-01-08T20:19:24.341Z,99907.38
2023-01-08T20:21:51.162Z,99896.28
2023-01-08T20:24:17.957Z,99898.66
2023-01-08T20:26:46.100Z,99900.00
2023-01-08T20:29:15.037Z,99897.38
2023-01-08T20:31:42.247Z,99889.91
2023-01-08T20:34:14.443Z,99900.22
2023-01-08T20:36:41.878Z,99893.91
2023-01-08T20:39:12.724Z,99901.88
2023-01-08T20:41:43.506Z,99890.47
2023-01-08T20:44:16.872Z,99881.16
2023-01-08T20:46:43.660Z,99880.72
2023-01-08T20:49:13.554Z,99883.25
2023-01-08T20:51:54.334Z,99883.19
2023-01-08T20:54:24.992Z,99871.88
2023-01-08T20:56:51.812Z,99875.53
2023-01-08T20:59:18.633Z,99879.53
2023-01-08T21:01:45.430Z,99865.03
2023-01-08T21:04:12.490Z,99864.66
2023-01-08T21:06:39.523Z,99865.47
2023-01-08T21:09:09.196Z,99868.78
2023-01-08T21:11:39.350Z,99858.56
2023-01-08T21:14:08.136Z,99857.75
2023-01-08T21:16:35.958Z,99863.91
2023-01-08T21:19:03.876Z,99862.53
2023-01-08T21:21:33.754Z,99874.78
2023-01-08T21:24:04.534Z,99856.94
2023-01-08T21:26:33.542Z,99856.38
2023-01-08T21:29:03.081Z,99851.16
2023-01-08T21:31:30.286Z,99846.34
2023-01-08T21:33:58.665Z,99842.97
2023-01-08T21:36:27.326Z,99850.81
2023-01-08T21:38:55.623Z,99851.63
2023-01-08T21:41:42.663Z,99851.78
2023-01-08T21:44:39.679Z,99847.19
2023-01-08T21:47:09.581Z,99843.81
2023-01-08T21:49:36.660Z,99839.16
2023-01-08T21:52:22.705Z,99829.81
2023-01-08T21:54:49.930Z,99829.31
2023-01-08T21:57:16.944Z,99817.28
2023-01-08T21:59:44.083Z,99819.25
2023-01-08T22:02:18.510Z,99815.63
2023-01-08T22:04:45.837Z,99812.41
2023-01-08T22:07:12.907Z,99809.69
2023-01-08T22:09:40.773Z,99795.81
2023-01-08T22:12:08.210Z,99793.59
2023-01-08T22:14:38.215Z,99792.50
2023-01-08T22:17:08.480Z,99792.34
2023-01-08T22:19:37.602Z,99796.19
2023-01-08T22:22:04.718Z,99790.78
2023-01-08T22:24:31.500Z,99786.44
2023-01-08T22:26:58.260Z,99796.16
2023-01-08T22:29:25.188Z,99785.59
2023-01-08T22:31:51.960Z,99785.13
2023-01-08T22:34:19.061Z,99781.56
2023-01-08T22:36:47.135Z,99779.88
2023-01-08T22:39:13.854Z,99781.94
2023-01-08T22:41:40.564Z,99777.56
2023-01-08T22:44:07.375Z,99786.72
2023-01-08T22:46:34.116Z,99789.34
2023-01-08T22:49:01.009Z,99773.09
2023-01-08T22:51:27.948Z,99777.06
2023-01-08T22:53:59.226Z,99769.81
2023-01-08T22:56:26.795Z,99766.19
2023-01-08T22:58:54.309Z,99767.81
2023-01-08T23:01:24.041Z,99763.38
2023-01-08T23:03:51.951Z,99762.84
2023-01-08T23:06:19.566Z,99758.31
2023-01-08T23:08:47.109Z,99756.81
2023-01-08T23:11:16.233Z,99750.16
2023-01-08T23:13:43.060Z,99748.13
2023-01-08T23:16:11.623Z,99741.00
2023-01-08T23:18:38.950Z,99743.13
2023-01-08T23:21:13.973Z,99738.50
2023-01-08T23:23:40.813Z,99734.88
2023-01-08T23:26:17.870Z,99741.13
2023-01-08T23:28:45.318Z,99727.16
2023-01-08T23:31:14.153Z,99725.78
2023-01-08T23:33:41.186Z,99716.84
2023-01-08T23:36:08.474Z,99718.00
2023-01-08T23:38:35.184Z,99721.28
2023-01-08T23:41:06.367Z,99721.84
2023-01-08T23:43:33.350Z,99726.47
2023-01-08T23:46:04.552Z,99727.06
2023-01-08T23:48:31.399Z,99716.19
2023-01-08T23:50:58.426Z,99714.66
2023-01-08T23:53:25.190Z,99706.16
2023-01-08T23:55:51.896Z,99702.19
2023-01-08T23:58:18.569Z,99709.19
